createdAt,value
2023-05-14T00:01:32.083Z,90.99
2023-05-14T00:03:58.856Z,91.39
2023-05-14T00:06:25.951Z,92.50
2023-05-14T00:08:52.653Z,91.92
2023-05-14T00:11:19.644Z,92.13
2023-05-14T00:13:46.564Z,92.62
2023-05-14T00:16:13.298Z,92.39
2023-05-14T00:18:40.113Z,92.79
2023-05-14T00:21:06.993Z,93.30
2023-05-14T00:23:33.837Z,93.70
2023-05-14T00:26:00.686Z,94.15
2023-05-14T00:28:27.654Z,95.70
2023-05-14T00:30:54.716Z,94.43
2023-05-14T00:33:21.392Z,96.26
2023-05-14T00:35:48.805Z,95.68
2023-05-14T00:38:19.215Z,95.01
2023-05-14T00:40:51.223Z,95.09
2023-05-14T00:43:22.756Z,96.55
2023-05-14T00:45:53.843Z,97.32
2023-05-14T00:48:21.546Z,96.96
2023-05-14T00:50:49.800Z,97.77
2023-05-14T00:53:17.078Z,97.63
2023-05-14T00:55:45.329Z,97.83
2023-05-14T00:58:13.901Z,97.68
2023-05-14T01:00:41.447Z,97.42
2023-05-14T01:03:09.287Z,97.94
2023-05-14T01:05:58.792Z,98.32
2023-05-14T01:08:50.858Z,98.93
2023-05-14T01:11:28.914Z,98.45
2023-05-14T01:14:11.301Z,98.86
2023-05-14T01:16:40.273Z,99.55
2023-05-14T01:19:13.964Z,100.07
2023-05-14T01:21:43.556Z,100.68
2023-05-14T01:24:10.542Z,101.13
2023-05-14T01:26:37.504Z,101.68
2023-05-14T01:29:20.870Z,101.89
2023-05-14T01:31:50.556Z,102.21
2023-05-14T01:34:21.191Z,101.89
2023-05-14T01:36:48.907Z,102.32
2023-05-14T01:39:16.013Z,102.60
2023-05-14T01:41:44.127Z,103.45
2023-05-14T01:44:11.403Z,103.47
2023-05-14T01:46:38.534Z,103.09
2023-05-14T01:49:05.535Z,103.34
2023-05-14T01:51:32.743Z,103.89
2023-05-14T01:53:59.497Z,103.61
2023-05-14T01:56:27.008Z,103.83
2023-05-14T01:58:53.864Z,104.42
2023-05-14T02:01:20.830Z,104.78
2023-05-14T02:03:47.611Z,105.53
2023-05-14T02:06:14.386Z,105.72
2023-05-14T02:08:41.122Z,105.66
2023-05-14T02:11:07.867Z,105.92
2023-05-14T02:13:34.788Z,105.55
2023-05-14T02:16:01.703Z,105.95
2023-05-14T02:18:28.605Z,106.24
2023-05-14T02:20:55.335Z,106.38
2023-05-14T02:23:31.068Z,107.02
2023-05-14T02:26:04.939Z,107.24
2023-05-14T02:28:31.621Z,106.95
2023-05-14T02:31:01.809Z,106.67
2023-05-14T02:33:28.739Z,106.65
2023-05-14T02:35:55.584Z,107.00
2023-05-14T02:38:23.012Z,106.73
2023-05-14T02:40:49.734Z,107.58
2023-05-14T02:43:16.424Z,107.49
2023-05-14T02:45:43.107Z,107.66
2023-05-14T02:48:09.855Z,108.29
2023-05-14T02:50:36.606Z,108.05
2023-05-14T02:53:03.401Z,107.84
2023-05-14T02:55:30.107Z,107.53
2023-05-14T02:57:56.946Z,108.20
2023-05-14T03:00:24.175Z,108.52
2023-05-14T03:02:51.347Z,108.43
2023-05-14T03:05:18.810Z,108.23
2023-05-14T03:07:45.609Z,108.90
2023-05-14T03:10:12.328Z,109.33
2023-05-14T03:12:39.116Z,108.89
2023-05-14T03:15:06.241Z,107.96
2023-05-14T03:17:33.021Z,107.04
2023-05-14T03:19:59.704Z,107.11
2023-05-14T03:22:26.682Z,107.33
2023-05-14T03:24:53.775Z,107.24
2023-05-14T03:27:20.899Z,107.75
2023-05-14T03:29:47.674Z,108.41
2023-05-14T03:32:15.106Z,109.14
2023-05-14T03:34:41.960Z,109.22
2023-05-14T03:37:08.687Z,108.89
2023-05-14T03:39:36.121Z,109.06
2023-05-14T03:42:03.001Z,108.91
2023-05-14T03:44:29.889Z,108.69
2023-05-14T03:46:56.616Z,108.64
2023-05-14T03:49:23.356Z,109.27
2023-05-14T03:51:50.109Z,109.55
2023-05-14T03:54:16.830Z,109.92
2023-05-14T03:56:43.532Z,110.11
2023-05-14T03:59:10.345Z,110.06
2023-05-14T04:01:37.080Z,110.35
2023-05-14T04:04:04.093Z,110.52
2023-05-14T04:06:31.631Z,110.06
2023-05-14T04:08:58.435Z,109.52
2023-05-14T04:11:25.316Z,109.44
2023-05-14T04:13:52.132Z,109.55
2023-05-14T04:16:19.044Z,109.24
2023-05-14T04:18:46.039Z,109.19
2023-05-14T04:21:13.037Z,109.03
2023-05-14T04:23:39.830Z,109.00
2023-05-14T04:26:06.617Z,108.69
2023-05-14T04:28:33.370Z,108.40
2023-05-14T04:31:00.263Z,108.25
2023-05-14T04:33:27.033Z,107.87
2023-05-14T04:35:53.847Z,107.58
2023-05-14T04:38:20.563Z,106.72
2023-05-14T04:40:47.341Z,105.73
2023-05-14T04:43:14.188Z,106.05
2023-05-14T04:45:41.133Z,105.09
2023-05-14T04:48:08.761Z,103.64
2023-05-14T04:50:35.633Z,102.52
2023-05-14T04:53:03.168Z,101.31
2023-05-14T04:55:30.097Z,101.25
2023-05-14T04:57:56.974Z,99.73
2023-05-14T05:00:24.078Z,97.89
2023-05-14T05:02:51.273Z,95.73
2023-05-14T05:05:18.212Z,96.55
2023-05-14T05:07:44.934Z,96.39
2023-05-14T05:10:11.657Z,96.39
2023-05-14T05:12:38.403Z,94.32
2023-05-14T05:15:06.404Z,91.91
2023-05-14T05:17:33.196Z,89.44
2023-05-14T05:19:59.919Z,86.25
2023-05-14T05:22:26.985Z,85.46
2023-05-14T05:24:53.650Z,81.39
2023-05-14T05:27:21.972Z,78.79
2023-05-14T05:29:48.824Z,78.34
2023-05-14T05:32:15.584Z,77.69
2023-05-14T05:34:42.375Z,79.04
2023-05-14T05:37:12.677Z,78.47
2023-05-14T05:39:39.908Z,78.45
2023-05-14T05:42:07.340Z,79.12
2023-05-14T05:44:34.226Z,80.11
2023-05-14T05:47:01.097Z,78.16
2023-05-14T05:49:27.912Z,78.33
2023-05-14T05:51:54.619Z,75.54
2023-05-14T05:54:23.767Z,75.94
2023-05-14T05:56:50.697Z,74.36
2023-05-14T05:59:17.476Z,73.32
2023-05-14T06:01:44.217Z,73.61
2023-05-14T06:04:11.044Z,74.02
2023-05-14T06:06:37.782Z,79.62
2023-05-14T06:09:04.646Z,85.49
2023-05-14T06:11:31.399Z,82.58
2023-05-14T06:13:58.205Z,82.22
2023-05-14T06:16:25.010Z,77.87
2023-05-14T06:18:52.779Z,75.57
2023-05-14T06:21:19.699Z,73.62
2023-05-14T06:23:46.630Z,73.28
2023-05-14T06:26:13.418Z,73.35
2023-05-14T06:28:40.245Z,71.47
2023-05-14T06:31:07.125Z,69.27
2023-05-14T06:33:33.910Z,67.20
2023-05-14T06:36:04.431Z,68.20
2023-05-14T06:38:31.275Z,64.54
2023-05-14T06:40:58.158Z,62.44
2023-05-14T06:43:24.898Z,61.44
2023-05-14T06:45:52.385Z,62.70
2023-05-14T06:48:19.619Z,62.99
2023-05-14T06:50:47.700Z,61.41
2023-05-14T06:53:14.475Z,59.38
2023-05-14T06:55:41.516Z,59.06
2023-05-14T06:58:08.900Z,55.65
2023-05-14T07:00:35.777Z,55.10
2023-05-14T07:03:02.581Z,54.05
2023-05-14T07:05:29.559Z,50.66
2023-05-14T07:07:56.292Z,49.79
2023-05-14T07:10:23.600Z,49.02
2023-05-14T07:12:50.588Z,48.77
2023-05-14T07:15:17.422Z,47.05
2023-05-14T07:17:44.245Z,46.11
2023-05-14T07:20:11.559Z,45.75
2023-05-14T07:22:38.320Z,45.85
2023-05-14T07:25:05.339Z,43.77
2023-05-14T07:27:32.224Z,43.68
2023-05-14T07:29:58.964Z,43.42
2023-05-14T07:32:25.848Z,44.28
2023-05-14T07:34:52.704Z,38.84
2023-05-14T07:37:19.816Z,37.99
2023-05-14T07:39:47.463Z,41.91
2023-05-14T07:42:19.528Z,38.65
2023-05-14T07:44:54.998Z,39.03
2023-05-14T07:47:21.860Z,37.39
2023-05-14T07:49:48.668Z,36.62
2023-05-14T07:52:15.408Z,34.45
2023-05-14T07:54:42.112Z,37.87
2023-05-14T07:57:09.091Z,36.28
2023-05-14T07:59:35.977Z,36.22
2023-05-14T08:02:02.963Z,36.21
2023-05-14T08:04:29.899Z,37.21
2023-05-14T08:06:58.153Z,37.37
2023-05-14T08:09:24.899Z,34.55
2023-05-14T08:11:51.555Z,35.59
2023-05-14T08:14:18.344Z,35.85
2023-05-14T08:16:45.173Z,35.61
2023-05-14T08:19:13.066Z,36.01
2023-05-14T08:21:39.904Z,33.18
2023-05-14T08:24:06.856Z,29.07
2023-05-14T08:26:33.607Z,30.71
2023-05-14T08:29:00.347Z,29.22
2023-05-14T08:31:27.152Z,25.60
2023-05-14T08:33:54.016Z,24.24
2023-05-14T08:36:20.887Z,23.14
2023-05-14T08:38:48.500Z,25.40
2023-05-14T08:41:16.325Z,27.71
2023-05-14T08:44:06.842Z,28.52
2023-05-14T08:46:34.165Z,27.21
2023-05-14T08:49:11.250Z,28.68
2023-05-14T08:51:38.660Z,29.58
2023-05-14T08:54:05.890Z,28.54
2023-05-14T08:56:33.435Z,28.53
2023-05-14T08:59:00.809Z,26.97
2023-05-14T09:01:28.959Z,27.38
2023-05-14T09:03:56.674Z,28.58
2023-05-14T09:06:24.625Z,29.58
2023-05-14T09:08:51.574Z,29.19
2023-05-14T09:11:18.253Z,28.90
2023-05-14T09:13:44.973Z,26.07
2023-05-14T09:16:11.826Z,27.78
2023-05-14T09:18:38.748Z,27.00
2023-05-14T09:21:05.610Z,26.56
2023-05-14T09:23:33.839Z,25.49
2023-05-14T09:26:05.523Z,24.24
2023-05-14T09:28:32.343Z,26.46
2023-05-14T09:30:59.127Z,24.53
2023-05-14T09:33:29.562Z,25.03
2023-05-14T09:35:59.707Z,24.62
2023-05-14T09:38:31.055Z,24.85
2023-05-14T09:41:01.157Z,24.22
2023-05-14T09:43:28.267Z,23.91
2023-05-14T09:45:55.016Z,26.99
2023-05-14T09:48:22.898Z,26.77
2023-05-14T09:50:49.779Z,26.07
2023-05-14T09:53:17.679Z,27.03
2023-05-14T09:55:45.622Z,23.25
2023-05-14T09:58:14.571Z,21.65
2023-05-14T10:00:45.533Z,23.45
2023-05-14T10:03:15.606Z,22.05
2023-05-14T10:05:45.043Z,20.36
2023-05-14T10:08:22.096Z,20.45
2023-05-14T10:10:50.598Z,20.95
2023-05-14T10:13:22.875Z,20.57
2023-05-14T10:15:57.898Z,22.03
2023-05-14T10:18:26.490Z,23.11
2023-05-14T10:21:14.400Z,24.72
2023-05-14T10:23:42.529Z,24.63
2023-05-14T10:26:10.505Z,24.68
2023-05-14T10:28:37.648Z,21.76
2023-05-14T10:31:04.403Z,21.33
2023-05-14T10:33:46.721Z,21.89
2023-05-14T10:36:13.742Z,22.99
2023-05-14T10:38:40.695Z,22.25
2023-05-14T10:41:11.849Z,23.00
2023-05-14T10:43:40.682Z,22.89
2023-05-14T10:46:09.501Z,23.57
2023-05-14T10:48:37.853Z,24.51
2023-05-14T10:51:07.884Z,25.52
2023-05-14T10:53:40.664Z,23.57
2023-05-14T10:56:09.978Z,24.11
2023-05-14T10:58:42.096Z,23.50
2023-05-14T11:01:10.976Z,21.45
2023-05-14T11:03:44.335Z,20.70
2023-05-14T11:06:13.955Z,20.54
2023-05-14T11:08:41.630Z,21.24
2023-05-14T11:11:09.824Z,21.06
2023-05-14T11:13:36.621Z,21.39
2023-05-14T11:16:15.084Z,21.48
2023-05-14T11:18:48.232Z,21.86
2023-05-14T11:21:17.419Z,19.79
2023-05-14T11:23:46.821Z,19.66
2023-05-14T11:26:17.869Z,18.64
2023-05-14T11:28:48.956Z,16.76
2023-05-14T11:31:15.968Z,18.71
2023-05-14T11:33:42.954Z,17.64
2023-05-14T11:36:12.049Z,18.40
2023-05-14T11:38:49.143Z,18.17
2023-05-14T11:41:16.185Z,18.22
2023-05-14T11:43:43.048Z,18.83
2023-05-14T11:46:16.546Z,19.67
2023-05-14T11:48:43.439Z,20.87
2023-05-14T11:51:10.268Z,21.58
2023-05-14T11:53:37.152Z,23.28
2023-05-14T11:56:04.124Z,24.08
2023-05-14T11:58:34.040Z,25.48
2023-05-14T12:01:00.913Z,24.43
2023-05-14T12:03:30.154Z,25.59
2023-05-14T12:06:02.329Z,26.09
2023-05-14T12:08:31.270Z,26.39
2023-05-14T12:10:59.445Z,26.91
2023-05-14T12:13:31.392Z,26.81
2023-05-14T12:16:02.674Z,27.27
2023-05-14T12:18:32.059Z,27.03
2023-05-14T12:21:17.891Z,27.68
2023-05-14T12:24:03.457Z,28.56
2023-05-14T12:26:34.456Z,26.64
2023-05-14T12:29:03.459Z,28.05
2023-05-14T12:31:35.362Z,28.10
2023-05-14T12:34:04.820Z,27.54
2023-05-14T12:36:32.672Z,27.09
2023-05-14T12:39:03.751Z,22.92
2023-05-14T12:41:31.299Z,23.72
2023-05-14T12:43:59.292Z,25.33
2023-05-14T12:46:27.741Z,25.08
2023-05-14T12:48:55.428Z,24.02
2023-05-14T12:51:22.612Z,23.51
2023-05-14T12:53:50.434Z,23.80
2023-05-14T12:56:17.210Z,23.99
2023-05-14T12:58:44.104Z,24.97
2023-05-14T13:01:10.917Z,25.09
2023-05-14T13:03:37.789Z,25.44
2023-05-14T13:06:04.863Z,26.14
2023-05-14T13:08:31.601Z,26.51
2023-05-14T13:10:58.444Z,27.20
2023-05-14T13:13:25.309Z,26.39
2023-05-14T13:15:53.157Z,24.77
2023-05-14T13:18:20.023Z,35.11
2023-05-14T13:20:47.628Z,26.73
2023-05-14T13:23:15.064Z,24.96
2023-05-14T13:25:41.846Z,27.25
2023-05-14T13:28:09.308Z,24.85
2023-05-14T13:30:36.037Z,25.63
2023-05-14T13:33:03.037Z,25.23
2023-05-14T13:35:29.840Z,25.62
2023-05-14T13:37:56.621Z,26.88
2023-05-14T13:40:23.391Z,26.46
2023-05-14T13:42:50.242Z,24.76
2023-05-14T13:45:17.057Z,24.52
2023-05-14T13:47:44.326Z,26.23
2023-05-14T13:50:11.166Z,25.72
2023-05-14T13:52:39.049Z,25.05
2023-05-14T13:55:06.423Z,25.11
2023-05-14T13:57:33.264Z,23.66
2023-05-14T14:00:00.195Z,23.78
2023-05-14T14:02:26.939Z,21.58
2023-05-14T14:04:53.643Z,22.47
2023-05-14T14:07:21.165Z,23.77
2023-05-14T14:09:47.945Z,23.63
2023-05-14T14:12:14.895Z,21.72
2023-05-14T14:14:41.644Z,23.02
2023-05-14T14:17:09.009Z,25.88
2023-05-14T14:19:36.164Z,27.99
2023-05-14T14:22:02.991Z,30.07
2023-05-14T14:24:29.771Z,35.98
2023-05-14T14:26:56.633Z,39.74
2023-05-14T14:29:23.963Z,43.87
2023-05-14T14:31:50.841Z,43.69
2023-05-14T14:34:17.758Z,44.40
2023-05-14T14:36:44.528Z,44.34
2023-05-14T14:39:11.597Z,41.67
2023-05-14T14:41:38.399Z,44.22
2023-05-14T14:44:05.560Z,46.15
2023-05-14T14:46:33.261Z,49.25
2023-05-14T14:49:00.171Z,56.42
2023-05-14T14:51:27.200Z,53.97
2023-05-14T14:53:54.211Z,49.71
2023-05-14T14:56:21.182Z,44.54
2023-05-14T14:58:47.968Z,43.34
2023-05-14T15:01:15.002Z,40.49
2023-05-14T15:03:41.904Z,34.41
2023-05-14T15:06:08.723Z,34.41
2023-05-14T15:08:35.500Z,35.34
2023-05-14T15:11:02.346Z,34.80
2023-05-14T15:13:29.408Z,34.66
2023-05-14T15:15:56.204Z,35.32
2023-05-14T15:18:22.956Z,35.53
2023-05-14T15:20:50.029Z,34.99
2023-05-14T15:23:16.772Z,34.63
2023-05-14T15:25:43.640Z,36.85
2023-05-14T15:28:10.848Z,37.32
2023-05-14T15:30:37.802Z,39.81
2023-05-14T15:33:07.756Z,41.34
2023-05-14T15:35:34.842Z,41.18
2023-05-14T15:38:01.714Z,41.71
2023-05-14T15:40:28.575Z,42.58
2023-05-14T15:42:55.404Z,43.45
2023-05-14T15:45:22.274Z,41.74
2023-05-14T15:47:49.268Z,41.65
2023-05-14T15:50:16.135Z,38.13
2023-05-14T15:52:42.909Z,37.35
2023-05-14T15:55:10.358Z,38.62
2023-05-14T15:57:37.454Z,36.82
2023-05-14T16:00:11.000Z,38.51
2023-05-14T16:02:39.269Z,38.48
2023-05-14T16:05:07.510Z,38.41
2023-05-14T16:07:34.619Z,39.90
2023-05-14T16:10:01.501Z,41.12
2023-05-14T16:12:28.399Z,42.26
2023-05-14T16:14:57.003Z,42.70
2023-05-14T16:17:23.937Z,42.86
2023-05-14T16:19:51.376Z,41.61
2023-05-14T16:22:19.308Z,41.61
2023-05-14T16:24:46.373Z,44.64
2023-05-14T16:27:13.328Z,43.18
2023-05-14T16:29:40.120Z,43.56
2023-05-14T16:32:07.258Z,42.13
2023-05-14T16:34:34.185Z,36.24
2023-05-14T16:37:01.085Z,36.34
2023-05-14T16:39:28.278Z,35.91
2023-05-14T16:41:55.083Z,37.81
2023-05-14T16:44:21.920Z,36.95
2023-05-14T16:46:48.687Z,38.97
2023-05-14T16:49:15.514Z,39.94
2023-05-14T16:51:43.905Z,38.70
2023-05-14T16:54:10.864Z,39.04
2023-05-14T16:56:37.696Z,39.66
2023-05-14T16:59:04.729Z,38.20
2023-05-14T17:01:32.180Z,38.70
2023-05-14T17:03:58.975Z,39.02
2023-05-14T17:06:25.828Z,38.20
2023-05-14T17:08:52.591Z,37.10
2023-05-14T17:11:19.383Z,36.73
2023-05-14T17:13:46.214Z,36.40
2023-05-14T17:16:13.120Z,37.53
2023-05-14T17:18:40.104Z,38.10
2023-05-14T17:21:07.571Z,36.96
2023-05-14T17:23:34.656Z,37.24
2023-05-14T17:26:01.378Z,37.69
2023-05-14T17:28:29.960Z,38.94
2023-05-14T17:30:57.079Z,38.82
2023-05-14T17:33:24.220Z,38.48
2023-05-14T17:35:51.095Z,38.30
2023-05-14T17:38:17.900Z,38.49
2023-05-14T17:40:44.582Z,41.34
2023-05-14T17:43:11.538Z,41.86
2023-05-14T17:45:50.307Z,40.25
2023-05-14T17:48:19.671Z,41.16
2023-05-14T17:50:46.425Z,40.92
2023-05-14T17:53:13.246Z,42.52
2023-05-14T17:55:43.471Z,42.58
2023-05-14T17:58:15.507Z,42.80
2023-05-14T18:00:43.463Z,41.74
2023-05-14T18:03:10.706Z,41.04
2023-05-14T18:05:37.676Z,42.55
2023-05-14T18:08:04.628Z,41.83
2023-05-14T18:10:31.379Z,42.02
2023-05-14T18:12:58.151Z,42.29
2023-05-14T18:15:25.671Z,43.31
2023-05-14T18:17:53.013Z,45.45
2023-05-14T18:20:20.081Z,45.52
2023-05-14T18:22:46.919Z,44.17
2023-05-14T18:25:13.732Z,44.17
2023-05-14T18:27:44.911Z,45.16
2023-05-14T18:30:14.423Z,44.13
2023-05-14T18:32:43.635Z,44.64
2023-05-14T18:35:11.209Z,45.03
2023-05-14T18:37:38.768Z,45.17
2023-05-14T18:40:07.059Z,45.19
2023-05-14T18:42:34.396Z,44.80
2023-05-14T18:45:01.521Z,45.60
2023-05-14T18:47:30.611Z,46.86
2023-05-14T18:49:59.481Z,48.57
2023-05-14T18:52:26.961Z,48.31
2023-05-14T18:54:54.860Z,49.22
2023-05-14T18:57:22.115Z,49.65
2023-05-14T18:59:48.913Z,49.70
2023-05-14T19:02:16.203Z,50.47
2023-05-14T19:04:51.775Z,50.11
2023-05-14T19:07:20.653Z,50.84
2023-05-14T19:09:47.499Z,53.82
2023-05-14T19:12:14.792Z,51.91
2023-05-14T19:14:42.061Z,51.24
2023-05-14T19:17:09.157Z,50.92
2023-05-14T19:19:35.951Z,51.10
2023-05-14T19:22:02.700Z,51.33
2023-05-14T19:24:29.400Z,49.01
2023-05-14T19:26:56.428Z,50.12
2023-05-14T19:29:23.164Z,50.30
2023-05-14T19:31:50.122Z,50.37
2023-05-14T19:34:17.148Z,51.74
2023-05-14T19:36:43.988Z,52.27
2023-05-14T19:39:10.966Z,52.52
2023-05-14T19:41:37.955Z,53.15
2023-05-14T19:44:04.775Z,54.49
2023-05-14T19:46:31.577Z,54.63
2023-05-14T19:48:58.475Z,53.86
2023-05-14T19:51:25.539Z,54.44
2023-05-14T19:53:52.413Z,54.07
2023-05-14T19:56:19.337Z,54.85
2023-05-14T19:58:46.213Z,54.59
2023-05-14T20:01:13.117Z,54.86
2023-05-14T20:03:40.149Z,55.86
2023-05-14T20:06:07.890Z,55.49
2023-05-14T20:08:34.725Z,56.51
2023-05-14T20:11:01.880Z,55.97
2023-05-14T20:13:31.739Z,58.01
2023-05-14T20:15:59.019Z,57.39
2023-05-14T20:18:25.961Z,57.17
2023-05-14T20:20:53.000Z,56.85
2023-05-14T20:23:20.634Z,56.58
2023-05-14T20:25:47.872Z,56.81
2023-05-14T20:28:14.996Z,56.99
2023-05-14T20:30:41.863Z,57.81
2023-05-14T20:33:08.748Z,59.19
2023-05-14T20:35:36.116Z,58.66
2023-05-14T20:38:03.746Z,58.35
2023-05-14T20:40:32.785Z,58.95
2023-05-14T20:42:59.690Z,59.11
2023-05-14T20:45:26.962Z,59.48
2023-05-14T20:47:54.101Z,59.61
2023-05-14T20:50:22.556Z,59.35
2023-05-14T20:52:49.465Z,59.73
2023-05-14T20:55:16.381Z,59.54
2023-05-14T20:57:43.553Z,60.02
2023-05-14T21:00:11.234Z,59.82
2023-05-14T21:02:38.156Z,60.60
2023-05-14T21:05:05.907Z,62.12
2023-05-14T21:07:32.576Z,62.00
2023-05-14T21:09:59.446Z,61.21
2023-05-14T21:12:26.286Z,61.63
2023-05-14T21:14:53.002Z,62.28
2023-05-14T21:17:19.781Z,62.75
2023-05-14T21:19:46.580Z,63.01
2023-05-14T21:22:13.861Z,64.35
2023-05-14T21:24:40.642Z,65.20
2023-05-14T21:27:07.424Z,63.27
2023-05-14T21:29:34.139Z,64.63
2023-05-14T21:32:01.159Z,67.55
2023-05-14T21:34:29.812Z,68.56
2023-05-14T21:36:58.097Z,67.91
2023-05-14T21:39:24.812Z,66.94
2023-05-14T21:41:51.827Z,67.12
2023-05-14T21:44:18.510Z,65.50
2023-05-14T21:46:45.380Z,64.68
2023-05-14T21:49:12.113Z,67.17
2023-05-14T21:51:39.078Z,65.66
2023-05-14T21:54:06.861Z,65.83
2023-05-14T21:56:35.968Z,66.96
2023-05-14T21:59:03.153Z,67.07
2023-05-14T22:01:30.007Z,67.39
2023-05-14T22:03:58.051Z,67.37
2023-05-14T22:06:25.131Z,66.43
2023-05-14T22:08:51.899Z,66.54
2023-05-14T22:11:18.636Z,66.62
2023-05-14T22:13:45.483Z,69.14
2023-05-14T22:16:13.698Z,71.51
2023-05-14T22:18:41.489Z,71.35
2023-05-14T22:21:08.399Z,68.20
2023-05-14T22:23:35.246Z,69.74
2023-05-14T22:26:02.079Z,70.40
2023-05-14T22:28:28.811Z,69.31
2023-05-14T22:30:56.601Z,72.79
2023-05-14T22:33:23.492Z,73.90
2023-05-14T22:35:50.593Z,74.69
2023-05-14T22:38:17.556Z,75.05
2023-05-14T22:40:44.392Z,73.87
2023-05-14T22:43:11.132Z,74.04
2023-05-14T22:45:37.992Z,77.27
2023-05-14T22:48:04.896Z,78.33
2023-05-14T22:50:31.769Z,79.85
2023-05-14T22:52:58.520Z,80.35
2023-05-14T22:55:25.669Z,82.88
2023-05-14T22:57:52.616Z,82.80
2023-05-14T23:00:19.396Z,82.34
2023-05-14T23:02:46.255Z,82.43
2023-05-14T23:05:13.626Z,81.72
2023-05-14T23:07:40.528Z,80.94
2023-05-14T23:10:07.626Z,80.95
2023-05-14T23:12:34.458Z,81.08
2023-05-14T23:15:01.480Z,79.56
2023-05-14T23:17:28.562Z,80.63
2023-05-14T23:19:55.511Z,80.52
2023-05-14T23:22:22.303Z,80.77
2023-05-14T23:24:49.159Z,81.88
2023-05-14T23:27:16.073Z,82.04
2023-05-14T23:29:42.907Z,82.75
2023-05-14T23:32:09.672Z,83.50
2023-05-14T23:34:36.449Z,84.27
2023-05-14T23:37:03.267Z,84.53
2023-05-14T23:39:30.248Z,84.94
2023-05-14T23:41:56.960Z,85.33
2023-05-14T23:44:23.855Z,86.55
2023-05-14T23:46:50.822Z,86.48
2023-05-14T23:49:17.709Z,87.96
2023-05-14T23:51:44.536Z,87.56
2023-05-14T23:54:11.819Z,88.20
2023-05-14T23:56:38.936Z,88.17
2023-05-14T23:59:05.757Z,88.02
